createdAt,value
2022-09-25T00:00:38.105Z,11.29
2022-09-25T00:03:48.607Z,11.32
2022-09-25T00:06:23.757Z,11.16
2022-09-25T00:09:14.882Z,11.25
2022-09-25T00:11:43.933Z,11.28
2022-09-25T00:14:30.038Z,11.30
2022-09-25T00:17:02.743Z,11.30
2022-09-25T00:19:48.732Z,11.23
2022-09-25T00:22:37.879Z,11.31
2022-09-25T00:25:06.829Z,11.32
2022-09-25T00:27:54.711Z,11.29
2022-09-25T00:30:24.605Z,11.31
2022-09-25T00:32:55.128Z,11.30
2022-09-25T00:36:23.610Z,11.30
2022-09-25T00:39:14.697Z,11.27
2022-09-25T00:42:03.701Z,11.22
2022-09-25T00:45:01.877Z,11.22
2022-09-25T00:47:58.310Z,11.21
2022-09-25T00:50:35.783Z,11.16
2022-09-25T00:53:27.278Z,11.19
2022-09-25T00:56:02.637Z,11.18
2022-09-25T00:58:43.795Z,11.10
2022-09-25T01:01:39.229Z,11.23
2022-09-25T01:04:26.906Z,11.23
2022-09-25T01:07:33.760Z,11.19
2022-09-25T01:10:42.120Z,11.20
2022-09-25T01:13:30.033Z,10.70
2022-09-25T01:16:41.198Z,11.21
2022-09-25T01:19:27.692Z,11.20
2022-09-25T01:22:12.573Z,11.21
2022-09-25T01:25:15.616Z,11.20
2022-09-25T01:28:07.847Z,11.19
2022-09-25T01:31:10.972Z,11.14
2022-09-25T01:34:02.029Z,11.13
2022-09-25T01:36:37.917Z,11.07
2022-09-25T01:39:48.646Z,11.07
2022-09-25T01:42:40.646Z,10.99
2022-09-25T01:45:33.461Z,10.88
2022-09-25T01:48:31.626Z,10.95
2022-09-25T01:51:06.619Z,10.97
2022-09-25T01:54:01.579Z,10.99
2022-09-25T01:56:35.904Z,10.92
2022-09-25T01:59:18.046Z,10.87
2022-09-25T02:02:08.016Z,10.89
2022-09-25T02:05:09.471Z,10.82
2022-09-25T02:08:12.118Z,10.90
2022-09-25T02:10:47.434Z,10.95
2022-09-25T02:13:25.959Z,11.00
2022-09-25T02:15:58.447Z,10.96
2022-09-25T02:19:34.146Z,10.97
2022-09-25T02:22:07.287Z,10.92
2022-09-25T02:24:59.545Z,11.00
2022-09-25T02:27:30.926Z,10.99
2022-09-25T02:30:19.055Z,11.00
2022-09-25T02:33:26.461Z,10.92
2022-09-25T02:36:34.974Z,11.04
2022-09-25T02:39:44.050Z,11.03
2022-09-25T02:42:35.711Z,11.04
2022-09-25T02:46:06.006Z,11.06
2022-09-25T02:48:55.408Z,10.97
2022-09-25T02:51:29.877Z,11.01
2022-09-25T02:54:07.523Z,10.99
2022-09-25T02:56:39.549Z,10.93
2022-09-25T02:59:29.340Z,10.88
2022-09-25T03:01:59.998Z,10.97
2022-09-25T03:04:29.534Z,10.99
2022-09-25T03:07:01.143Z,11.00
2022-09-25T03:09:52.202Z,10.82
2022-09-25T03:12:22.051Z,10.90
2022-09-25T03:14:52.535Z,10.81
2022-09-25T03:17:39.901Z,11.00
2022-09-25T03:20:17.806Z,11.03
2022-09-25T03:22:53.912Z,10.97
2022-09-25T03:25:27.360Z,11.02
2022-09-25T03:27:57.306Z,11.09
2022-09-25T03:30:34.859Z,11.05
2022-09-25T03:33:06.218Z,11.04
2022-09-25T03:35:49.613Z,11.03
2022-09-25T03:38:23.722Z,10.99
2022-09-25T03:41:09.560Z,11.03
2022-09-25T03:43:57.604Z,11.03
2022-09-25T03:46:32.600Z,10.89
2022-09-25T03:49:04.477Z,11.01
2022-09-25T03:51:42.171Z,11.00
2022-09-25T03:54:10.466Z,11.02
2022-09-25T03:56:59.103Z,11.08
2022-09-25T03:59:37.376Z,11.10
2022-09-25T04:02:05.715Z,10.98
2022-09-25T04:04:33.924Z,11.06
2022-09-25T04:07:02.715Z,11.05
2022-09-25T04:09:38.489Z,10.56
2022-09-25T04:12:08.993Z,11.01
2022-09-25T04:14:38.774Z,10.93
2022-09-25T04:17:07.162Z,10.78
2022-09-25T04:19:35.273Z,10.76
2022-09-25T04:22:11.000Z,10.76
2022-09-25T04:24:50.411Z,10.69
2022-09-25T04:27:20.527Z,10.81
2022-09-25T04:29:51.015Z,10.83
2022-09-25T04:32:36.500Z,10.84
2022-09-25T04:35:05.175Z,10.86
2022-09-25T04:37:33.453Z,10.71
2022-09-25T04:40:04.264Z,10.48
2022-09-25T04:42:32.727Z,10.88
2022-09-25T04:45:02.291Z,10.93
2022-09-25T04:47:31.196Z,10.85
2022-09-25T04:50:22.505Z,10.96
2022-09-25T04:52:51.555Z,10.91
2022-09-25T04:55:29.659Z,10.81
2022-09-25T04:58:00.840Z,10.89
2022-09-25T05:00:36.603Z,11.00
2022-09-25T05:03:09.185Z,10.93
2022-09-25T05:05:48.755Z,10.97
2022-09-25T05:08:20.092Z,10.99
2022-09-25T05:11:06.370Z,10.99
2022-09-25T05:13:42.058Z,10.88
2022-09-25T05:16:11.580Z,10.93
2022-09-25T05:19:00.817Z,10.96
2022-09-25T05:21:33.107Z,10.96
2022-09-25T05:24:03.755Z,10.97
2022-09-25T05:26:34.668Z,11.02
2022-09-25T05:29:02.990Z,10.89
2022-09-25T05:32:00.643Z,11.04
2022-09-25T05:34:29.024Z,11.06
2022-09-25T05:37:04.371Z,11.00
2022-09-25T05:39:35.082Z,11.10
2022-09-25T05:42:06.499Z,11.13
2022-09-25T05:44:52.197Z,11.15
2022-09-25T05:47:22.118Z,11.18
2022-09-25T05:50:08.769Z,11.22
2022-09-25T05:52:58.108Z,11.25
2022-09-25T05:55:32.847Z,11.29
2022-09-25T05:58:09.992Z,11.26
2022-09-25T06:00:41.545Z,11.24
2022-09-25T06:03:14.771Z,11.16
2022-09-25T06:05:51.231Z,11.25
2022-09-25T06:09:00.913Z,11.25
2022-09-25T06:11:37.151Z,11.28
2022-09-25T06:14:13.688Z,11.32
2022-09-25T06:16:44.934Z,11.26
2022-09-25T06:19:14.575Z,11.14
2022-09-25T06:21:48.116Z,11.12
2022-09-25T06:24:51.434Z,10.55
2022-09-25T06:27:22.020Z,11.23
2022-09-25T06:29:59.201Z,11.27
2022-09-25T06:32:50.989Z,11.21
2022-09-25T06:35:20.866Z,11.18
2022-09-25T06:37:59.706Z,11.29
2022-09-25T06:40:32.384Z,11.31
2022-09-25T06:43:01.209Z,11.35
2022-09-25T06:45:33.778Z,10.84
2022-09-25T06:48:02.670Z,11.43
2022-09-25T06:50:37.924Z,11.42
2022-09-25T06:53:06.112Z,11.61
2022-09-25T06:55:35.076Z,11.52
2022-09-25T06:58:04.408Z,11.38
2022-09-25T07:00:32.982Z,11.82
2022-09-25T07:03:19.390Z,11.89
2022-09-25T07:05:49.991Z,11.86
2022-09-25T07:08:21.129Z,11.94
2022-09-25T07:10:50.353Z,12.00
2022-09-25T07:13:19.781Z,12.05
2022-09-25T07:15:53.007Z,12.11
2022-09-25T07:18:21.344Z,12.16
2022-09-25T07:20:54.119Z,12.16
2022-09-25T07:23:23.404Z,12.11
2022-09-25T07:25:51.630Z,12.13
2022-09-25T07:28:20.316Z,12.16
2022-09-25T07:30:49.552Z,12.14
2022-09-25T07:33:17.873Z,12.09
2022-09-25T07:35:46.162Z,12.15
2022-09-25T07:38:16.244Z,12.22
2022-09-25T07:40:45.098Z,12.23
2022-09-25T07:43:13.411Z,12.33
2022-09-25T07:45:41.514Z,12.34
2022-09-25T07:48:10.617Z,12.38
2022-09-25T07:50:38.808Z,12.37
2022-09-25T07:53:06.990Z,12.51
2022-09-25T07:55:36.584Z,12.64
2022-09-25T07:58:04.811Z,12.74
2022-09-25T08:00:33.190Z,12.82
2022-09-25T08:03:02.582Z,12.79
2022-09-25T08:05:31.433Z,12.91
2022-09-25T08:07:59.846Z,12.98
2022-09-25T08:10:28.198Z,13.04
2022-09-25T08:12:57.639Z,13.17
2022-09-25T08:15:26.033Z,13.19
2022-09-25T08:17:55.210Z,13.35
2022-09-25T09:01:08.482Z,14.90
2022-09-25T09:03:46.195Z,14.81
2022-09-25T09:06:16.931Z,14.70
2022-09-25T09:08:48.436Z,14.57
2022-09-25T09:11:19.326Z,14.41
2022-09-25T09:13:51.430Z,14.24
2022-09-25T09:16:24.806Z,14.13
2022-09-25T09:18:55.230Z,13.89
2022-09-25T09:21:29.058Z,13.82
2022-09-25T09:24:09.019Z,13.88
2022-09-25T09:27:03.464Z,13.92
2022-09-25T09:29:50.682Z,13.88
2022-09-25T09:32:34.634Z,14.06
2022-09-25T09:39:17.922Z,14.43
2022-09-25T09:41:54.800Z,14.36
2022-09-25T09:44:35.179Z,14.27
2022-09-25T09:47:22.686Z,14.08
2022-09-25T09:49:54.939Z,13.87
2022-09-25T09:52:24.492Z,13.65
2022-09-25T09:54:57.969Z,13.94
2022-09-25T09:57:28.099Z,14.05
2022-09-25T10:00:04.693Z,14.12
2022-09-25T10:02:38.578Z,13.91
2022-09-25T10:05:12.977Z,14.37
2022-09-25T10:07:44.027Z,14.47
2022-09-25T10:10:17.159Z,14.09
2022-09-25T10:19:07.060Z,14.36
2022-09-25T10:21:39.882Z,14.90
2022-09-25T10:24:11.805Z,14.91
2022-09-25T10:26:41.255Z,14.98
2022-09-25T10:29:28.388Z,14.93
2022-09-25T10:32:03.765Z,14.84
2022-09-25T10:34:33.610Z,15.08
2022-09-25T10:37:21.635Z,15.39
2022-09-25T10:43:03.599Z,17.12
2022-09-25T10:45:33.374Z,17.24
2022-09-25T10:48:18.786Z,17.43
2022-09-25T10:50:47.985Z,17.58
2022-09-25T10:53:30.545Z,17.82
2022-09-25T10:56:04.676Z,17.56
2022-09-25T10:58:37.905Z,17.92
2022-09-25T11:01:06.556Z,18.30
2022-09-25T11:03:41.591Z,18.27
2022-09-25T11:08:26.802Z,18.92
2022-09-25T11:21:46.342Z,20.38
2022-09-25T11:24:18.792Z,20.25
2022-09-25T11:26:50.221Z,20.24
2022-09-25T11:29:23.967Z,20.08
2022-09-25T11:31:55.494Z,20.11
2022-09-25T11:34:29.720Z,19.81
2022-09-25T11:37:04.099Z,19.64
2022-09-25T11:39:56.767Z,20.08
2022-09-25T11:42:31.643Z,19.57
2022-09-25T11:45:08.276Z,19.94
2022-09-25T11:47:41.695Z,20.41
2022-09-25T11:50:15.977Z,20.32
2022-09-25T11:52:54.302Z,20.61
2022-09-25T11:55:49.497Z,20.41
2022-09-25T11:58:45.070Z,20.67
2022-09-25T12:01:24.245Z,20.29
2022-09-25T12:04:04.634Z,19.82
2022-09-25T12:06:55.406Z,19.81
2022-09-25T12:09:42.625Z,19.62
2022-09-25T12:12:15.906Z,19.54
2022-09-25T12:14:52.130Z,19.64
2022-09-25T12:17:24.532Z,20.14
2022-09-25T12:20:00.043Z,20.82
2022-09-25T12:22:48.655Z,20.41
2022-09-25T12:25:32.119Z,19.63
2022-09-25T12:28:05.395Z,19.00
2022-09-25T12:30:39.554Z,18.50
2022-09-25T12:33:23.878Z,18.68
2022-09-25T12:35:56.755Z,18.50
2022-09-25T12:38:34.927Z,18.44
2022-09-25T12:41:10.915Z,18.64
2022-09-25T12:43:44.465Z,18.73
2022-09-25T12:46:19.403Z,18.78
2022-09-25T12:48:51.401Z,18.76
2022-09-25T12:51:26.540Z,18.99
2022-09-25T12:53:57.259Z,18.74
2022-09-25T12:56:35.315Z,17.83
2022-09-25T12:59:10.667Z,18.79
2022-09-25T13:01:45.960Z,18.72
2022-09-25T13:04:34.141Z,18.72
2022-09-25T13:07:13.395Z,18.65
2022-09-25T13:09:45.710Z,17.68
2022-09-25T13:12:24.863Z,18.12
2022-09-25T13:14:56.034Z,17.92
2022-09-25T13:17:25.644Z,17.80
2022-09-25T13:19:53.843Z,17.84
2022-09-25T13:22:24.719Z,17.40
2022-09-25T13:24:56.504Z,17.72
2022-09-25T13:27:26.892Z,17.78
2022-09-25T13:29:58.302Z,17.71
2022-09-25T13:32:29.153Z,17.95
2022-09-25T13:34:59.781Z,18.18
2022-09-25T13:37:31.702Z,18.30
2022-09-25T13:40:19.367Z,18.20
2022-09-25T13:42:49.479Z,17.78
2022-09-25T13:45:34.896Z,18.11
2022-09-25T13:51:37.049Z,18.36
2022-09-25T13:54:06.350Z,18.51
2022-09-25T13:56:48.383Z,18.68
2022-09-25T13:59:37.625Z,18.70
2022-09-25T14:02:34.470Z,18.70
2022-09-25T14:05:03.429Z,18.53
2022-09-25T14:07:31.865Z,18.30
2022-09-25T14:10:01.844Z,18.10
2022-09-25T14:12:43.739Z,17.87
2022-09-25T14:15:21.873Z,17.54
2022-09-25T14:17:52.380Z,17.52
2022-09-25T14:20:32.360Z,17.56
2022-09-25T14:23:02.664Z,17.36
2022-09-25T14:25:36.447Z,17.37
2022-09-25T14:28:05.955Z,17.17
2022-09-25T14:30:35.889Z,17.26
2022-09-25T14:33:30.884Z,17.48
2022-09-25T14:36:06.987Z,17.81
2022-09-25T14:38:53.999Z,18.10
2022-09-25T14:41:45.119Z,18.66
2022-09-25T14:44:36.071Z,18.60
2022-09-25T14:47:06.283Z,18.26
2022-09-25T14:49:37.721Z,18.03
2022-09-25T14:52:07.878Z,17.80
2022-09-25T14:54:39.311Z,17.56
2022-09-25T14:57:08.520Z,17.21
2022-09-25T14:59:42.445Z,17.09
2022-09-25T15:02:19.213Z,17.05
2022-09-25T15:04:48.632Z,17.03
2022-09-25T15:07:19.563Z,16.90
2022-09-25T15:09:48.849Z,16.54
2022-09-25T15:12:22.393Z,16.64
2022-09-25T15:15:03.987Z,16.76
2022-09-25T15:17:34.356Z,16.88
2022-09-25T15:20:05.649Z,16.99
2022-09-25T15:22:36.320Z,16.99
2022-09-25T15:25:06.885Z,16.99
2022-09-25T15:27:37.040Z,17.09
2022-09-25T15:30:06.714Z,17.12
2022-09-25T15:32:39.452Z,17.18
2022-09-25T15:35:19.492Z,17.32
2022-09-25T15:37:48.255Z,17.79
2022-09-25T15:40:23.228Z,18.68
2022-09-25T15:42:51.702Z,19.40
2022-09-25T15:45:41.206Z,19.93
2022-09-25T15:48:33.077Z,19.85
2022-09-25T15:51:04.166Z,19.04
2022-09-25T15:53:36.128Z,18.39
2022-09-25T15:56:16.323Z,17.67
2022-09-25T15:58:48.116Z,17.10
2022-09-25T16:15:52.182Z,15.40
2022-09-25T16:18:28.428Z,15.34
2022-09-25T16:20:59.382Z,15.29
2022-09-25T16:23:30.068Z,15.24
2022-09-25T16:25:58.795Z,15.20
2022-09-25T16:28:29.307Z,15.16
2022-09-25T16:31:01.248Z,15.12
2022-09-25T16:33:31.475Z,15.06
2022-09-25T16:36:18.338Z,15.00
2022-09-25T16:39:11.767Z,14.92
2022-09-25T16:41:42.580Z,14.86
2022-09-25T16:44:15.418Z,14.80
2022-09-25T16:46:46.716Z,14.76
2022-09-25T16:49:14.983Z,14.74
2022-09-25T16:51:46.037Z,14.70
2022-09-25T16:54:16.318Z,14.66
2022-09-25T16:56:45.570Z,14.61
2022-09-25T16:59:18.603Z,14.53
2022-09-25T17:01:48.759Z,14.47
2022-09-25T17:04:17.339Z,14.36
2022-09-25T17:06:48.532Z,14.30
2022-09-25T17:09:19.496Z,14.24
2022-09-25T17:11:51.553Z,14.19
2022-09-25T17:14:26.174Z,14.13
2022-09-25T17:16:57.268Z,14.07
2022-09-25T17:19:25.703Z,14.01
2022-09-25T17:21:57.135Z,13.97
2022-09-25T17:24:27.733Z,13.96
2022-09-25T17:26:55.807Z,13.95
2022-09-25T17:29:24.044Z,13.96
2022-09-25T17:31:52.136Z,13.87
2022-09-25T17:34:25.675Z,13.94
2022-09-25T17:36:53.883Z,13.93
2022-09-25T17:39:21.988Z,13.86
2022-09-25T17:41:50.047Z,13.80
2022-09-25T17:44:21.810Z,13.77
2022-09-25T17:46:50.808Z,13.71
2022-09-25T17:49:18.995Z,13.66
2022-09-25T17:51:48.654Z,13.61
2022-09-25T17:54:17.916Z,13.56
2022-09-25T17:56:46.436Z,13.46
2022-09-25T17:59:15.648Z,13.53
2022-09-25T18:01:43.890Z,13.50
2022-09-25T18:04:30.684Z,13.47
2022-09-25T18:07:01.423Z,13.38
2022-09-25T18:09:30.214Z,13.36
2022-09-25T18:11:58.323Z,13.31
2022-09-25T18:14:26.413Z,13.39
2022-09-25T18:16:54.390Z,13.38
2022-09-25T18:19:39.639Z,13.35
2022-09-25T18:22:20.685Z,13.32
2022-09-25T18:24:52.764Z,13.27
2022-09-25T18:27:21.423Z,13.19
2022-09-25T18:29:49.462Z,13.12
2022-09-25T18:32:17.534Z,13.12
2022-09-25T18:34:45.627Z,13.11
2022-09-25T18:37:15.039Z,13.13
2022-09-25T18:39:43.596Z,13.13
2022-09-25T18:42:11.743Z,13.13
2022-09-25T18:44:42.543Z,13.09
2022-09-25T18:47:11.497Z,13.09
2022-09-25T18:49:39.603Z,13.13
2022-09-25T18:52:08.014Z,13.13
2022-09-25T18:54:37.396Z,13.14
2022-09-25T18:57:05.447Z,13.09
2022-09-25T18:59:33.944Z,13.06
2022-09-25T19:02:02.095Z,13.04
2022-09-25T19:04:30.335Z,13.00
2022-09-25T19:06:58.455Z,13.00
2022-09-25T19:09:27.801Z,12.99
2022-09-25T19:11:57.236Z,13.01
2022-09-25T19:14:25.326Z,13.02
2022-09-25T19:16:53.664Z,13.02
2022-09-25T19:19:21.712Z,12.96
2022-09-25T19:21:49.787Z,13.03
2022-09-25T19:24:18.891Z,13.02
2022-09-25T19:26:48.134Z,13.01
2022-09-25T19:29:17.576Z,13.00
2022-09-25T19:31:45.830Z,13.00
2022-09-25T19:34:13.970Z,13.01
2022-09-25T19:36:42.061Z,12.99
2022-09-25T19:39:10.391Z,12.99
2022-09-25T19:41:41.091Z,12.97
2022-09-25T19:44:13.631Z,12.94
2022-09-25T19:46:43.742Z,12.80
2022-09-25T19:49:12.169Z,12.73
2022-09-25T19:51:41.003Z,12.71
2022-09-25T19:54:10.275Z,12.70
2022-09-25T19:56:40.809Z,12.63
2022-09-25T19:59:10.047Z,12.62
2022-09-25T20:01:38.527Z,12.62
2022-09-25T20:04:10.213Z,12.65
2022-09-25T20:06:40.214Z,12.68
2022-09-25T20:09:11.258Z,12.72
2022-09-25T20:11:39.447Z,12.75
2022-09-25T20:14:09.077Z,12.81
2022-09-25T20:16:39.607Z,12.82
2022-09-25T20:19:09.825Z,12.74
2022-09-25T20:21:39.187Z,12.75
2022-09-25T20:24:08.945Z,12.79
2022-09-25T20:26:37.549Z,12.75
2022-09-25T20:29:08.768Z,12.69
2022-09-25T20:31:38.268Z,12.67
2022-09-25T20:34:06.582Z,12.64
2022-09-25T20:36:39.175Z,12.58
2022-09-25T20:39:07.674Z,12.54
2022-09-25T20:41:35.704Z,12.48
2022-09-25T20:44:04.155Z,12.56
2022-09-25T20:46:33.306Z,12.52
2022-09-25T20:49:02.081Z,12.51
2022-09-25T20:51:31.630Z,12.47
2022-09-25T20:54:02.700Z,12.53
2022-09-25T20:56:31.918Z,12.53
2022-09-25T20:59:00.710Z,12.53
2022-09-25T21:01:31.407Z,12.51
2022-09-25T21:04:01.925Z,12.47
2022-09-25T21:06:31.875Z,12.41
2022-09-25T21:09:02.942Z,12.38
2022-09-25T21:11:32.111Z,12.29
2022-09-25T21:14:02.618Z,12.28
2022-09-25T21:16:32.328Z,12.21
2022-09-25T21:19:01.702Z,12.33
2022-09-25T21:21:30.342Z,12.33
2022-09-25T21:23:58.917Z,12.36
2022-09-25T21:26:29.950Z,12.37
2022-09-25T21:28:59.528Z,12.29
2022-09-25T21:31:29.393Z,12.40
2022-09-25T21:33:59.149Z,12.41
2022-09-25T21:36:28.170Z,12.40
2022-09-25T21:38:56.470Z,12.39
2022-09-25T21:41:25.985Z,12.39
2022-09-25T21:43:56.007Z,12.38
2022-09-25T21:46:24.673Z,12.38
2022-09-25T21:48:54.453Z,12.39
2022-09-25T21:51:24.536Z,12.37
2022-09-25T21:53:54.062Z,12.44
2022-09-25T21:56:23.948Z,12.44
2022-09-25T21:58:53.356Z,12.44
2022-09-25T22:01:24.915Z,12.38
2022-09-25T22:03:55.461Z,12.39
2022-09-25T22:06:26.362Z,12.42
2022-09-25T22:08:56.245Z,12.43
2022-09-25T22:11:24.534Z,12.42
2022-09-25T22:13:53.534Z,12.43
2022-09-25T22:16:24.327Z,12.43
2022-09-25T22:18:54.376Z,12.42
2022-09-25T22:21:24.211Z,12.44
2022-09-25T22:23:52.275Z,12.45
2022-09-25T22:26:20.979Z,12.45
2022-09-25T22:28:49.575Z,12.44
2022-09-25T22:31:19.845Z,12.39
2022-09-25T22:33:50.181Z,12.34
2022-09-25T22:36:18.411Z,12.31
2022-09-25T22:38:46.578Z,12.29
2022-09-25T22:41:15.562Z,12.26
2022-09-25T22:43:44.139Z,12.21
2022-09-25T22:46:13.640Z,12.21
2022-09-25T22:48:41.821Z,12.20
2022-09-25T22:51:13.630Z,12.19
2022-09-25T22:53:42.114Z,12.21
2022-09-25T22:56:12.457Z,12.16
2022-09-25T22:58:40.768Z,12.02
2022-09-25T23:01:11.951Z,12.05
2022-09-25T23:03:40.387Z,12.06
2022-09-25T23:06:08.942Z,12.08
2022-09-25T23:08:38.427Z,12.12
2022-09-25T23:11:08.486Z,12.09
2022-09-25T23:13:37.267Z,12.09
2022-09-25T23:16:06.991Z,12.10
2022-09-25T23:18:35.186Z,12.08
2022-09-25T23:21:03.363Z,12.05
2022-09-25T23:23:31.748Z,12.06
2022-09-25T23:26:06.347Z,12.07
2022-09-25T23:28:35.275Z,12.09
2022-09-25T23:31:11.514Z,12.11
2022-09-25T23:33:40.100Z,12.11
2022-09-25T23:36:09.488Z,12.13
2022-09-25T23:38:38.260Z,12.10
2022-09-25T23:41:16.117Z,12.06
2022-09-25T23:43:45.055Z,12.02
2022-09-25T23:46:13.295Z,11.93
2022-09-25T23:48:41.442Z,11.93
2022-09-25T23:51:10.178Z,11.92
2022-09-25T23:53:38.936Z,11.96
2022-09-25T23:56:08.278Z,11.88
2022-09-25T23:58:37.764Z,11.86
